• Join FlightAware (Why Join?)
  • Login
  • US Flag 
09:51AM EST


 

Airport Tracker/Info


-or-


 

Live Flight TrackerFlight Track Log ✈ EJA396 ✈ 05-May-2014 ✈ KSFO - KFFZ

Flight Track Log - Related Links

Times and Time Zones

All times are in EDT time to prevent confusion due to time zone crossing. See the EJA396 flight status page for this flight to view local times or setup timezone preferences in your user account.

Time Position Orientation Groundspeed Altitude Reporting Facility
EDT Latitude Longitude Course Direction KTS MPH feet Rate Location/Type
12:50PM 37.6303 -122.3967 297° West 135 155 41,000  Level Oakland Center
12:51PM 37.6519 -122.4511 297° West 210 242 4,200 -16,140 Descending Oakland Center
12:52PM 37.6308 -122.5189 249° West 263 303 8,500 4,140 Climbing Oakland Center
12:53PM 37.5581 -122.4844 159° South 288 331 12,700 3,960 Climbing Oakland Center
12:55PM 37.4853 -122.3733 130° Southeast 348 400 16,700 3,360 Climbing Oakland Center
12:56PM 37.4161 -122.2689 130° Southeast 386 444 19,600 2,820 Climbing Oakland Center
12:57PM 37.3447 -122.1594 129° Southeast 402 463 22,500 2,460 Climbing Oakland Center
12:58PM 37.2694 -122.0467 130° Southeast 420 483 24,700 2,040 Climbing Oakland Center
12:59PM 37.1903 -121.9292 130° Southeast 436 502 26,700 1,980 Climbing Oakland Center
01:00PM 37.1083 -121.8064 130° Southeast 448 516 28,800 1,920 Climbing Oakland Center
01:01PM 37.0269 -121.6917 132° Southeast 451 519 30,700 1,860 Climbing Oakland Center
01:02PM 36.9458 -121.5736 131° Southeast 450 518 32,700 2,100 Climbing Oakland Center
01:03PM 36.8539 -121.4283 128° Southeast 448 516 35,100 2,100 Climbing Oakland Center
01:04PM 36.7769 -121.3217 132° Southeast 435 501 37,000 1,860 Climbing Oakland Center
01:05PM 36.7011 -121.2111 131° Southeast 421 484 39,000 1,860 Climbing Oakland Center
01:06PM 36.6300 -121.1047 130° Southeast 406 467 40,900 960 Climbing Oakland Center
01:07PM 36.5550 -120.9997 132° Southeast 405 466 41,000  Climbing Oakland Center
01:08PM 36.4772 -120.8850 130° Southeast 430 495 41,000  Level Oakland Center
01:09PM 36.3969 -120.7658 130° Southeast 446 513 41,000  Level Oakland Center
01:10PM 36.2956 -120.6183 130° Southeast 463 533 41,000  Level Oakland Center
01:11PM 36.2111 -120.4992 131° Southeast 463 533 41,000  Level Oakland Center
01:12PM 36.1283 -120.3792 130° Southeast 461 531 41,000  Level Oakland Center
01:13PM 36.0442 -120.2592 131° Southeast 460 529 41,000  Level Oakland Center
01:14PM 35.9608 -120.1403 131° Southeast 459 528 41,000  Level Oakland Center
01:15PM 35.8761 -120.0208 131° Southeast 459 528 41,000  Level Oakland Center
01:16PM 35.7933 -119.9031 131° Southeast 458 527 41,000  Level Oakland Center
01:17PM 35.7100 -119.7861 131° Southeast 456 525 41,000  Level Oakland Center
01:18PM 35.6281 -119.6700 131° Southeast 450 518 41,000  Level Oakland Center
01:19PM 35.5447 -119.5544 132° Southeast 450 518 41,000  Level Oakland Center
01:20PM 35.4606 -119.4375 131° Southeast 454 522 41,000  Level Oakland Center
01:21PM 35.3614 -119.2989 131° Southeast 454 522 41,000  Level Oakland Center
01:22PM 35.2781 -119.1844 132° Southeast 453 521 41,000  Level Oakland Center
01:23PM 35.1950 -119.0686 131° Southeast 453 521 41,000  Level Oakland Center
01:24PM 35.1103 -118.9525 132° Southeast 454 522 41,000  Level Oakland Center
01:25PM 35.0267 -118.8369 131° Southeast 454 522 41,000  Level Oakland Center
01:26PM 34.9425 -118.7211 132° Southeast 454 522 41,000  Level Oakland Center
01:28PM 34.8089 -118.5447 133° Southeast 461 531 41,000  Level Los Angeles Center
01:29PM 34.7289 -118.4369 132° Southeast 461 531 41,000  Level Los Angeles Center
01:30PM 34.6394 -118.3156 132° Southeast 455 524 41,000  Level Los Angeles Center
01:31PM 34.5567 -118.2069 133° Southeast 439 505 41,000  Level Los Angeles Center
01:32PM 34.4700 -118.0906 132° Southeast 423 487 41,000  Level Los Angeles Center
01:33PM 34.4092 -117.9703 121° Southeast 437 503 41,000  Level Los Angeles Center
01:34PM 34.3717 -117.8114 106° East 442 509 41,000  Level Los Angeles Center
01:35PM 34.3364 -117.6639 106° East 451 519 41,000  Level Los Angeles Center
01:36PM 34.2994 -117.5125 106° East 462 532 41,000  Level Los Angeles Center
01:37PM 34.2631 -117.3611 106° East 464 534 41,000  Level Los Angeles Center
01:38PM 34.2253 -117.2103 107° East 465 535 41,000  Level Los Angeles Center
01:39PM 34.1847 -117.0508 107° East 471 542 41,000  Level Los Angeles Center
01:40PM 34.1472 -116.8997 107° East 473 544 41,000  Level Los Angeles Center
01:41PM 34.1092 -116.7433 106° East 473 544 41,000  Level Los Angeles Center
01:42PM 34.0636 -116.5589 107° East 475 547 41,000  Level Los Angeles Center
01:43PM 34.0261 -116.4097 107° East 471 542 41,000  Level Los Angeles Center
01:44PM 33.9881 -116.2619 107° East 463 533 41,000  Level Los Angeles Center
01:45PM 33.9514 -116.1164 107° East 456 525 41,000  Level Los Angeles Center
01:46PM 33.9133 -115.9692 107° East 455 524 41,000  Level Los Angeles Center
01:47PM 33.8747 -115.8214 107° East 462 532 41,000  Level Los Angeles Center
01:48PM 33.8392 -115.6792 107° East 449 517 41,000  Level Los Angeles Center
01:49PM 33.7919 -115.5011 108° East 462 532 41,000  Level Los Angeles Center
01:50PM 33.7533 -115.3558 108° East 461 531 41,000  Level Los Angeles Center
01:52PM 33.7144 -115.2125 108° East 455 524 41,000 -360 Level Los Angeles Center
01:53PM 33.6733 -115.0650 108° East 458 527 40,300 -1,080 Descending Los Angeles Center
01:54PM 33.6364 -114.9203 107° East 457 526 38,800 -1,440 Descending Los Angeles Center
01:55PM 33.5997 -114.7764 107° East 449 517 37,300 -2,160 Descending Los Angeles Center
01:56PM 33.5606 -114.5925 104° East 473 544 34,400 -2,760 Descending Los Angeles Center
01:57PM 33.5311 -114.4372 103° East 479 551 31,600 -2,760 Descending Los Angeles Center
01:58PM 33.5019 -114.2839 103° East 475 547 28,800 -2,880 Descending Los Angeles Center
01:59PM 33.4675 -114.1019 103° East 473 544 25,400 -1,800 Descending Albuquerque Center
02:00PM 33.4397 -113.9525 103° East 465 535 25,000 -960 Descending Albuquerque Center
02:01PM 33.4089 -113.8069 104° East 457 526 23,500 -1,560 Descending Albuquerque Center
02:02PM 33.3806 -113.6636 103° East 448 516 21,800 -1,620 Descending Albuquerque Center
02:03PM 33.3531 -113.5308 104° East 422 486 20,200 -1,680 Descending Albuquerque Center
02:04PM 33.3208 -113.3756 104° East 408 470 18,300 -1,680 Descending Albuquerque Center
02:05PM 33.2944 -113.2486 104° East 400 460 16,800 -1,500 Descending Albuquerque Center
02:06PM 33.2739 -113.1233 101° East 388 447 15,300 -1,500 Descending Albuquerque Center
02:07PM 33.2764 -112.9933 89° East 387 445 13,800 -1,500 Descending Albuquerque Center
02:08PM 33.2794 -112.8669 88° East 385 443 12,300 -1,260 Descending Albuquerque Center
02:09PM 33.2628 -112.7697 102° East 311 358 11,200 -1,200 Descending Albuquerque Center
02:10PM 33.2294 -112.6533 109° East 300 345 9,800 -1,080 Descending Albuquerque Center
02:11PM 33.2031 -112.5547 108° East 303 349 9,000 -420 Descending Albuquerque Center
02:12PM 33.1775 -112.4578 107° East 303 349 9,000  Level Albuquerque Center
02:13PM 33.1528 -112.3642 107° East 303 349 9,000  Level Albuquerque Center
02:14PM 33.1536 -112.2600 89° East 303 349 9,000 -300 Level Albuquerque Center
02:15PM 33.1553 -112.1636 89° East 303 349 8,500 -780 Descending Albuquerque Center
02:16PM 33.1647 -112.0608 84° East 308 354 7,500 -1,080 Descending Albuquerque Center
02:17PM 33.2156 -111.9581 59° Northeast 311 358 6,300 -1,080 Descending Albuquerque Center
02:19PM 33.2539 -111.8781 60° Northeast 282 325 5,300 -1,020 Descending Albuquerque Center
02:20PM 33.3047 -111.8203 44° Northeast 259 298 4,300 -720 Descending Albuquerque Center
02:21PM 33.3594 -111.7631 41° Northeast 260 299 3,900 -540 Descending Albuquerque Center
02:22PM 33.4086 -111.7144 40° Northeast 230 265 3,200 -660 Descending Albuquerque Center
02:23PM 33.4533 -111.6731 38° Northeast 165 190 2,600 -540 Descending Albuquerque Center
02:24PM 33.4808 -111.6919 330° Northwest 119 137 2,200 -600 Descending Albuquerque Center
02:25PM 33.4633 -111.7242 237° Southwest 112 129 1,400 -780 Descending Albuquerque Center